createdAt,value
2022-08-21T00:02:06.401Z,100286.28
2022-08-21T00:04:37.714Z,100391.94
2022-08-21T00:07:25.960Z,100395.28
2022-08-21T00:10:11.911Z,100395.47
2022-08-21T00:12:45.241Z,100380.19
2022-08-21T00:15:24.608Z,100385.53
2022-08-21T00:18:21.084Z,100390.25
2022-08-21T00:21:04.481Z,100356.22
2022-08-21T00:23:57.746Z,100388.13
2022-08-21T00:26:28.852Z,100368.38
2022-08-21T00:28:57.206Z,100400.03
2022-08-21T00:31:28.558Z,100271.63
2022-08-21T00:34:08.892Z,100363.69
2022-08-21T00:36:43.933Z,100369.81
2022-08-21T00:39:14.360Z,100384.50
2022-08-21T00:44:28.693Z,100382.31
2022-08-21T00:47:03.651Z,100362.94
2022-08-21T00:49:34.137Z,100364.00
2022-08-21T00:52:04.832Z,100378.50
2022-08-21T00:54:46.392Z,100214.66
2022-08-21T00:57:39.415Z,100381.84
2022-08-21T01:00:15.022Z,100382.53
2022-08-21T01:03:01.917Z,100361.94
2022-08-21T01:05:39.544Z,100394.56
2022-08-21T01:08:22.346Z,100364.66
2022-08-21T01:10:56.430Z,100372.69
2022-08-21T01:13:29.037Z,100371.06
2022-08-21T01:19:11.107Z,100372.31
2022-08-21T01:21:52.725Z,100352.72
2022-08-21T01:24:28.165Z,100385.78
2022-08-21T01:27:07.811Z,100289.41
2022-08-21T01:30:07.574Z,100387.03
2022-08-21T01:32:47.725Z,100362.63
2022-08-21T01:35:27.804Z,100385.88
2022-08-21T01:38:06.435Z,100218.69
2022-08-21T01:40:36.348Z,100389.50
2022-08-21T01:43:14.926Z,100372.56
2022-08-21T01:45:55.654Z,100361.66
2022-08-21T01:48:27.409Z,100360.78
2022-08-21T01:51:08.128Z,100361.84
2022-08-21T01:53:41.650Z,100386.78
2022-08-21T01:56:28.305Z,100392.13
2022-08-21T01:59:07.105Z,100390.41
2022-08-21T02:01:43.673Z,100390.41
2022-08-21T02:04:12.138Z,100381.22
2022-08-21T02:06:47.761Z,100389.81
2022-08-21T02:09:15.721Z,100368.56
2022-08-21T02:11:47.917Z,100378.63
2022-08-21T02:14:31.993Z,100378.91
2022-08-21T02:20:54.192Z,100393.13
2022-08-21T02:23:29.756Z,100313.06
2022-08-21T02:26:27.621Z,100357.38
2022-08-21T02:32:15.255Z,100381.13
2022-08-21T02:34:56.933Z,100372.09
2022-08-21T02:38:16.557Z,100372.19
2022-08-21T02:41:36.486Z,100352.91
2022-08-21T02:44:12.089Z,100349.84
2022-08-21T02:46:52.448Z,100400.72
2022-08-21T02:49:40.243Z,100402.47
2022-08-21T02:52:28.337Z,100369.94
2022-08-21T02:55:00.263Z,100365.31
2022-08-21T02:57:38.861Z,100360.53
2022-08-21T03:00:12.477Z,100398.94
2022-08-21T03:02:44.404Z,100253.94
2022-08-21T03:05:24.027Z,100397.78
2022-08-21T03:07:57.416Z,100403.13
2022-08-21T03:10:40.780Z,100406.66
2022-08-21T03:13:19.466Z,100216.41
2022-08-21T03:15:53.858Z,100409.69
2022-08-21T03:19:19.223Z,100381.88
2022-08-21T03:21:51.086Z,100377.88
2022-08-21T03:24:56.574Z,100392.66
2022-08-21T03:27:32.920Z,100397.66
2022-08-21T03:30:10.602Z,100339.75
2022-08-21T03:32:38.035Z,100407.69
2022-08-21T03:35:06.183Z,100344.19
2022-08-21T03:37:34.009Z,100404.75
2022-08-21T03:40:01.522Z,100335.78
2022-08-21T03:42:30.627Z,100399.47
2022-08-21T03:44:58.254Z,100360.28
2022-08-21T03:47:25.946Z,100414.69
2022-08-21T03:49:54.042Z,100407.31
2022-08-21T03:52:21.975Z,100417.59
2022-08-21T03:54:49.492Z,100413.16
2022-08-21T03:57:17.427Z,100356.56
2022-08-21T03:59:45.686Z,100409.81
2022-08-21T04:02:17.336Z,100271.78
2022-08-21T04:04:44.991Z,100397.44
2022-08-21T04:07:12.635Z,100404.41
2022-08-21T04:09:40.579Z,100404.06
2022-08-21T04:12:09.294Z,100319.94
2022-08-21T04:14:36.824Z,100406.94
2022-08-21T04:17:04.390Z,100425.34
2022-08-21T04:19:31.804Z,100391.94
2022-08-21T04:21:59.872Z,100418.66
2022-08-21T04:24:27.396Z,100395.00
2022-08-21T04:26:57.627Z,100417.00
2022-08-21T04:29:25.560Z,100366.19
2022-08-21T04:31:53.454Z,100367.44
2022-08-21T04:34:20.646Z,100417.78
2022-08-21T04:36:48.213Z,100419.03
2022-08-21T04:39:15.842Z,100405.53
2022-08-21T04:41:43.343Z,100409.97
2022-08-21T04:44:10.992Z,100402.06
2022-08-21T04:46:39.008Z,100404.91
2022-08-21T04:49:06.353Z,100410.94
2022-08-21T04:51:38.284Z,100414.63
2022-08-21T04:54:18.359Z,100433.53
2022-08-21T04:56:51.131Z,100430.69
2022-08-21T04:59:42.156Z,100430.97
2022-08-21T05:02:10.979Z,100426.78
2022-08-21T05:04:43.090Z,100429.69
2022-08-21T05:07:16.133Z,100433.41
2022-08-21T05:09:46.681Z,100425.06
2022-08-21T05:12:14.473Z,100411.63
2022-08-21T05:14:43.718Z,100407.44
2022-08-21T05:17:11.393Z,100433.34
2022-08-21T05:19:39.078Z,100420.19
2022-08-21T05:22:07.152Z,100412.53
2022-08-21T05:24:34.851Z,100375.03
2022-08-21T05:27:03.856Z,100413.00
2022-08-21T05:29:31.491Z,100367.16
2022-08-21T05:31:59.046Z,100433.47
2022-08-21T05:34:26.467Z,100434.31
2022-08-21T05:36:54.169Z,100421.06
2022-08-21T05:39:22.113Z,100429.97
2022-08-21T05:41:50.455Z,100310.31
2022-08-21T05:44:17.881Z,100415.50
2022-08-21T05:46:47.955Z,100421.06
2022-08-21T05:49:15.524Z,100425.59
2022-08-21T05:51:43.133Z,100339.19
2022-08-21T05:54:10.609Z,100412.03
2022-08-21T05:56:38.368Z,100434.91
2022-08-21T05:59:08.693Z,100372.50
2022-08-21T06:01:37.053Z,100414.47
2022-08-21T06:04:04.814Z,100412.41
2022-08-21T06:06:32.294Z,100423.72
2022-08-21T06:08:59.829Z,100409.06
2022-08-21T06:11:29.081Z,100412.31
2022-08-21T06:13:57.422Z,100405.69
2022-08-21T06:16:25.632Z,100328.00
2022-08-21T06:18:53.247Z,100422.06
2022-08-21T06:21:21.017Z,100308.44
2022-08-21T06:23:48.759Z,100405.56
2022-08-21T06:26:16.462Z,100406.47
2022-08-21T06:28:44.634Z,100408.69
2022-08-21T06:31:16.581Z,100403.28
2022-08-21T06:33:44.198Z,100394.75
2022-08-21T06:36:12.331Z,100385.50
2022-08-21T06:38:40.072Z,100401.75
2022-08-21T06:41:10.261Z,100402.97
2022-08-21T06:43:39.581Z,100405.75
2022-08-21T06:46:08.908Z,100410.28
2022-08-21T06:48:36.700Z,100396.66
2022-08-21T06:51:04.672Z,100405.31
2022-08-21T06:53:32.080Z,100388.94
2022-08-21T06:55:59.664Z,100413.13
2022-08-21T06:58:27.274Z,100413.59
2022-08-21T07:01:00.133Z,100406.22
2022-08-21T07:03:36.813Z,100395.75
2022-08-21T07:06:06.729Z,100396.03
2022-08-21T07:08:34.967Z,100327.06
2022-08-21T07:11:05.753Z,100377.47
2022-08-21T07:13:33.072Z,100396.09
2022-08-21T07:16:04.080Z,100396.25
2022-08-21T07:18:32.395Z,100392.66
2022-08-21T07:21:03.304Z,100343.69
2022-08-21T07:23:34.674Z,100359.69
2022-08-21T07:26:02.769Z,100384.28
2022-08-21T07:28:31.891Z,100376.53
2022-08-21T07:31:01.360Z,100385.75
2022-08-21T07:33:30.582Z,100367.16
2022-08-21T07:35:58.521Z,100383.56
2022-08-21T07:38:26.971Z,100394.59
2022-08-21T07:40:56.729Z,100313.25
2022-08-21T07:43:24.255Z,100390.47
2022-08-21T07:45:52.135Z,100389.41
2022-08-21T07:48:19.771Z,100298.06
2022-08-21T07:50:47.356Z,100396.19
2022-08-21T07:53:15.815Z,100268.88
2022-08-21T07:55:43.531Z,100291.41
2022-08-21T07:58:11.210Z,100383.44
2022-08-21T08:00:38.875Z,100370.63
2022-08-21T08:03:06.468Z,100369.63
2022-08-21T08:05:33.843Z,100374.75
2022-08-21T08:08:01.550Z,100339.97
2022-08-21T08:10:29.466Z,100360.47
2022-08-21T08:12:57.164Z,100327.47
2022-08-21T08:15:27.414Z,100341.63
2022-08-21T08:17:56.262Z,100262.91
2022-08-21T08:20:26.282Z,100347.91
2022-08-21T08:22:55.430Z,100340.56
2022-08-21T08:25:24.763Z,100338.97
2022-08-21T08:27:52.223Z,100323.88
2022-08-21T08:30:21.634Z,100337.47
2022-08-21T08:32:50.641Z,100334.81
2022-08-21T08:35:19.005Z,100269.47
2022-08-21T08:37:52.748Z,100254.25
2022-08-21T08:41:02.969Z,100324.38
2022-08-21T08:43:33.672Z,100318.94
2022-08-21T08:46:07.118Z,100303.66
2022-08-21T08:49:04.093Z,100313.56
2022-08-21T08:51:47.484Z,100311.75
2022-08-21T08:54:32.870Z,100311.84
2022-08-21T08:57:02.699Z,100310.84
2022-08-21T08:59:46.397Z,100309.84
2022-08-21T09:02:16.086Z,100305.38
2022-08-21T09:04:46.488Z,100327.09
2022-08-21T09:07:21.421Z,100327.53
2022-08-21T09:10:01.206Z,100324.28
2022-08-21T09:12:47.492Z,100289.38
2022-08-21T09:15:30.080Z,100317.28
2022-08-21T09:18:22.369Z,100316.06
2022-08-21T09:20:58.730Z,100316.22
2022-08-21T09:23:34.997Z,100314.03
2022-08-21T09:26:24.816Z,100244.13
2022-08-21T09:29:00.097Z,100311.59
2022-08-21T09:31:34.280Z,100314.50
2022-08-21T09:34:04.847Z,100315.69
2022-08-21T09:36:52.451Z,100319.38
2022-08-21T09:39:29.754Z,100228.72
2022-08-21T09:42:02.993Z,100314.75
2022-08-21T09:44:33.610Z,100297.69
2022-08-21T09:47:01.729Z,100303.34
2022-08-21T09:49:40.415Z,100308.84
2022-08-21T09:52:26.515Z,100315.84
2022-08-21T09:54:56.787Z,100258.81
2022-08-21T09:57:46.889Z,100317.50
2022-08-21T10:00:28.241Z,100308.97
2022-08-21T10:02:55.964Z,100315.50
2022-08-21T10:05:28.080Z,100313.78
2022-08-21T10:07:55.757Z,100314.72
2022-08-21T10:10:29.378Z,100313.78
2022-08-21T10:13:06.056Z,100319.59
2022-08-21T10:16:01.382Z,100300.25
2022-08-21T10:18:41.259Z,100282.38
2022-08-21T10:21:21.876Z,100303.75
2022-08-21T10:24:05.112Z,100304.78
2022-08-21T10:26:50.271Z,100294.94
2022-08-21T10:29:45.694Z,100297.16
2022-08-21T10:32:26.460Z,100293.31
2022-08-21T10:35:09.626Z,100298.91
2022-08-21T10:37:52.118Z,100287.84
2022-08-21T10:40:36.528Z,100286.75
2022-08-21T10:43:28.433Z,100292.94
2022-08-21T10:46:13.715Z,100285.31
2022-08-21T10:49:00.501Z,100285.84
2022-08-21T10:51:35.501Z,100286.22
2022-08-21T10:54:35.662Z,100186.00
2022-08-21T10:57:10.712Z,100262.09
2022-08-21T10:59:51.795Z,100263.22
2022-08-21T11:02:30.558Z,100261.38
2022-08-21T11:05:07.058Z,100259.91
2022-08-21T11:07:55.017Z,100260.81
2022-08-21T11:10:27.553Z,100244.94
2022-08-21T11:13:13.265Z,100253.53
2022-08-21T11:15:57.774Z,100267.19
2022-08-21T11:18:28.340Z,100273.06
2022-08-21T11:21:27.899Z,100267.06
2022-08-21T11:24:05.782Z,100266.59
2022-08-21T11:26:59.431Z,100274.06
2022-08-21T11:29:34.775Z,100225.22
2022-08-21T11:32:35.912Z,100278.09
2022-08-21T11:35:18.292Z,100180.34
2022-08-21T11:38:16.370Z,100269.81
2022-08-21T11:41:25.328Z,100265.88
2022-08-21T11:44:17.641Z,100232.78
2022-08-21T11:47:09.016Z,100145.81
2022-08-21T11:49:58.916Z,100260.19
2022-08-21T11:52:47.276Z,100232.53
2022-08-21T11:55:40.790Z,100273.53
2022-08-21T11:58:23.776Z,100244.91
2022-08-21T12:00:55.232Z,100228.09
2022-08-21T12:03:25.728Z,100242.75
2022-08-21T12:05:59.742Z,100224.16
2022-08-21T12:08:32.059Z,100244.63
2022-08-21T12:11:17.381Z,100245.16
2022-08-21T12:14:07.160Z,100247.41
2022-08-21T12:16:35.729Z,100251.22
2022-08-21T12:19:21.855Z,100248.66
2022-08-21T12:21:55.626Z,100250.81
2022-08-21T12:24:29.299Z,100249.28
2022-08-21T12:27:22.006Z,100221.59
2022-08-21T12:29:52.684Z,100242.28
2022-08-21T12:32:27.859Z,100250.16
2022-08-21T12:35:17.217Z,100240.31
2022-08-21T12:38:13.584Z,100253.25
2022-08-21T12:40:50.295Z,100215.44
2022-08-21T12:43:26.721Z,100253.16
2022-08-21T12:45:54.490Z,100243.47
2022-08-21T12:48:31.054Z,100087.44
2022-08-21T12:51:08.958Z,100239.06
2022-08-21T12:53:50.300Z,100244.16
2022-08-21T12:56:21.305Z,100237.16
2022-08-21T12:59:06.630Z,100236.84
2022-08-21T13:01:53.214Z,100234.78
2022-08-21T13:04:22.750Z,100238.19
2022-08-21T13:06:55.867Z,100228.88
2022-08-21T13:09:29.344Z,100224.94
2022-08-21T13:11:58.305Z,100151.38
2022-08-21T13:14:46.047Z,100217.41
2022-08-21T13:17:25.903Z,100239.22
2022-08-21T13:20:11.414Z,100233.59
2022-08-21T13:22:45.148Z,100235.84
2022-08-21T13:25:17.930Z,100215.13
2022-08-21T13:27:58.810Z,100215.84
2022-08-21T13:30:26.911Z,100158.53
2022-08-21T13:33:02.550Z,100188.56
2022-08-21T13:35:48.115Z,100225.81
2022-08-21T13:38:19.832Z,100222.25
2022-08-21T13:40:58.484Z,100050.66
2022-08-21T13:43:34.223Z,100184.78
2022-08-21T13:46:08.285Z,100202.84
2022-08-21T13:48:37.621Z,100214.59
2022-08-21T13:51:05.978Z,100211.38
2022-08-21T13:53:41.593Z,100183.06
2022-08-21T13:56:13.089Z,100211.28
2022-08-21T13:58:48.077Z,100156.78
2022-08-21T14:01:36.728Z,100213.22
2022-08-21T14:04:20.825Z,100199.59
2022-08-21T14:06:49.998Z,100189.72
2022-08-21T14:09:34.493Z,100200.66
2022-08-21T14:12:23.254Z,100202.00
2022-08-21T14:14:54.840Z,100133.44
2022-08-21T14:17:34.053Z,100165.88
2022-08-21T14:20:10.378Z,100179.66
2022-08-21T14:22:52.665Z,100211.50
2022-08-21T14:25:21.215Z,100202.00
2022-08-21T14:27:54.547Z,100101.16
2022-08-21T14:30:44.896Z,100199.41
2022-08-21T14:33:25.229Z,100152.94
2022-08-21T14:35:53.615Z,100180.66
2022-08-21T14:38:26.474Z,100197.84
2022-08-21T14:41:02.615Z,100187.50
2022-08-21T14:43:33.070Z,100124.97
2022-08-21T14:46:02.923Z,100210.25
2022-08-21T14:48:32.647Z,100159.06
2022-08-21T14:51:02.947Z,100211.66
2022-08-21T14:53:32.164Z,100207.72
2022-08-21T14:56:08.898Z,100181.69
2022-08-21T14:58:41.408Z,100179.50
2022-08-21T15:01:12.275Z,100074.00
2022-08-21T15:03:43.991Z,100184.13
2022-08-21T15:06:20.826Z,100196.72
2022-08-21T15:08:51.861Z,100181.50
2022-08-21T15:11:42.959Z,100136.16
2022-08-21T15:14:21.581Z,100199.00
2022-08-21T15:16:50.264Z,100190.09
2022-08-21T15:19:23.036Z,100022.31
2022-08-21T15:21:50.849Z,100202.03
2022-08-21T15:24:18.140Z,100106.78
2022-08-21T15:26:46.702Z,100194.78
2022-08-21T15:29:14.111Z,100168.34
2022-08-21T15:31:58.860Z,100203.53
2022-08-21T15:34:28.978Z,100206.53
2022-08-21T15:36:58.361Z,100201.56
2022-08-21T15:39:31.046Z,100120.38
2022-08-21T15:42:11.256Z,100174.53
2022-08-21T15:44:44.285Z,100198.66
2022-08-21T15:47:15.479Z,100205.47
2022-08-21T15:49:46.711Z,100195.66
2022-08-21T15:52:21.562Z,100196.22
2022-08-21T15:54:50.056Z,100167.91
2022-08-21T15:57:19.901Z,100186.69
2022-08-21T15:59:55.010Z,100173.94
2022-08-21T16:02:27.618Z,100190.75
2022-08-21T16:04:55.686Z,100192.91
2022-08-21T16:07:23.790Z,100187.78
2022-08-21T16:09:51.392Z,100182.38
2022-08-21T16:12:25.476Z,100107.81
2022-08-21T16:14:54.550Z,100153.34
2022-08-21T16:17:40.028Z,100178.22
2022-08-21T16:20:12.200Z,100175.97
2022-08-21T16:22:42.246Z,100176.25
2022-08-21T16:25:14.884Z,100166.72
2022-08-21T16:27:45.814Z,100131.00
2022-08-21T16:30:15.751Z,100178.97
2022-08-21T16:32:44.569Z,100162.00
2022-08-21T16:35:14.542Z,100173.97
2022-08-21T16:37:42.359Z,100022.84
2022-08-21T16:40:11.182Z,100164.00
2022-08-21T16:42:40.810Z,100139.94
2022-08-21T16:45:12.441Z,100016.28
2022-08-21T16:47:40.295Z,100163.31
2022-08-21T16:50:08.802Z,100004.47
2022-08-21T16:52:37.029Z,100165.00
2022-08-21T16:55:05.558Z,100089.25
2022-08-21T16:57:33.093Z,100188.19
2022-08-21T17:00:14.166Z,100178.78
2022-08-21T17:02:48.823Z,100084.38
2022-08-21T17:05:16.702Z,100076.09
2022-08-21T17:07:44.801Z,100178.00
2022-08-21T17:10:14.745Z,100189.22
2022-08-21T17:12:45.105Z,100180.94
2022-08-21T17:15:21.766Z,100181.06
2022-08-21T17:17:49.620Z,100183.16
2022-08-21T17:20:17.800Z,100187.44
2022-08-21T17:22:45.141Z,100184.06
2022-08-21T17:25:13.642Z,100145.06
2022-08-21T17:27:44.091Z,100181.97
2022-08-21T17:30:13.778Z,100084.28
2022-08-21T17:32:43.178Z,100166.16
2022-08-21T17:35:11.835Z,100169.13
2022-08-21T17:37:39.483Z,100183.94
2022-08-21T17:40:10.910Z,100169.13
2022-08-21T17:42:39.689Z,100143.78
2022-08-21T17:45:09.737Z,100166.97
2022-08-21T17:47:38.516Z,100157.13
2022-08-21T17:50:11.242Z,100156.69
2022-08-21T17:52:38.818Z,100178.31
2022-08-21T17:55:07.245Z,100185.69
2022-08-21T17:57:36.204Z,100184.41
2022-08-21T18:00:07.065Z,100176.41
2022-08-21T18:02:41.583Z,100190.34
2022-08-21T18:05:11.394Z,100185.22
2022-08-21T18:07:39.560Z,100090.59
2022-08-21T18:10:13.743Z,100188.91
2022-08-21T18:12:43.028Z,100175.78
2022-08-21T18:15:15.850Z,100179.38
2022-08-21T18:17:46.840Z,100186.19
2022-08-21T18:20:18.985Z,100181.91
2022-08-21T18:22:47.053Z,100178.38
2022-08-21T18:25:15.334Z,100171.53
2022-08-21T18:27:46.537Z,100183.31
2022-08-21T18:30:19.717Z,100183.72
2022-08-21T18:32:48.006Z,100179.13
2022-08-21T18:35:16.562Z,100169.66
2022-08-21T18:37:44.426Z,100065.25
2022-08-21T18:40:12.469Z,100170.03
2022-08-21T18:42:55.167Z,100192.47
2022-08-21T18:45:24.367Z,100190.19
2022-08-21T18:47:54.661Z,100147.91
2022-08-21T18:50:26.526Z,100185.94
2022-08-21T18:52:54.503Z,100121.97
2022-08-21T18:55:23.218Z,100190.75
2022-08-21T18:57:54.351Z,100183.66
2022-08-21T19:00:26.425Z,100190.75
2022-08-21T19:02:54.297Z,100179.78
2022-08-21T19:05:24.668Z,100109.88
2022-08-21T19:07:53.522Z,100185.03
2022-08-21T19:10:28.683Z,100112.34
2022-08-21T19:13:01.373Z,100179.84
2022-08-21T19:15:29.762Z,100180.81
2022-08-21T19:17:59.001Z,100101.13
2022-08-21T19:20:36.655Z,100202.84
2022-08-21T19:23:05.752Z,100190.63
2022-08-21T19:25:34.629Z,100195.41
2022-08-21T19:28:14.016Z,100204.75
2022-08-21T19:30:46.197Z,100138.06
2022-08-21T19:33:27.505Z,100175.00
2022-08-21T19:35:55.289Z,100187.56
2022-08-21T19:38:23.173Z,100187.19
2022-08-21T19:40:51.823Z,100193.06
2022-08-21T19:43:22.452Z,100132.56
2022-08-21T19:45:55.291Z,100189.63
2022-08-21T19:48:24.693Z,100187.19
2022-08-21T19:50:52.541Z,100179.88
2022-08-21T19:53:20.848Z,100169.72
2022-08-21T19:55:49.289Z,100168.88
2022-08-21T19:58:39.168Z,100092.13
2022-08-21T20:03:57.836Z,100182.34
2022-08-21T20:06:25.748Z,100190.53
2022-08-21T20:08:55.186Z,100193.97
2022-08-21T20:11:31.421Z,100201.56
2022-08-21T20:14:00.643Z,100194.44
2022-08-21T20:16:29.397Z,100192.53
2022-08-21T20:18:57.738Z,100194.38
2022-08-21T20:21:25.245Z,100188.88
2022-08-21T20:23:53.685Z,100156.69
2022-08-21T20:26:22.374Z,100199.50
2022-08-21T20:31:38.293Z,100191.59
2022-08-21T20:34:08.322Z,100199.84
2022-08-21T20:36:35.912Z,100200.94
2022-08-21T20:39:09.189Z,100184.78
2022-08-21T20:41:39.009Z,100184.69
2022-08-21T20:47:00.846Z,100203.75
2022-08-21T20:49:50.170Z,100134.63
2022-08-21T20:52:20.103Z,100199.63
2022-08-21T20:57:54.813Z,100210.50
2022-08-21T21:00:26.919Z,100024.81
2022-08-21T21:02:54.418Z,100209.91
2022-08-21T21:05:25.994Z,100196.38
2022-08-21T21:08:18.940Z,100202.03
2022-08-21T21:10:55.136Z,100211.53
2022-08-21T21:14:02.189Z,100198.44
2022-08-21T21:16:50.790Z,100175.31
2022-08-21T21:19:29.354Z,100176.16
2022-08-21T21:22:19.505Z,100197.19
2022-08-21T21:25:11.621Z,100205.25
2022-08-21T21:27:49.163Z,100196.59
2022-08-21T21:30:28.738Z,100198.66
2022-08-21T21:32:56.491Z,100206.50
2022-08-21T21:35:32.427Z,100201.09
2022-08-21T21:38:21.997Z,100195.84
2022-08-21T21:41:11.190Z,100199.03
2022-08-21T21:44:13.300Z,100194.75
2022-08-21T21:46:54.718Z,100199.16
2022-08-21T21:53:26.343Z,100199.34
2022-08-21T21:56:29.549Z,100197.88
2022-08-21T22:02:41.945Z,100200.94
2022-08-21T22:05:53.645Z,99892.13
2022-08-21T22:11:55.543Z,100098.56
2022-08-21T22:14:41.498Z,100183.81
2022-08-21T22:24:32.129Z,100196.31
2022-08-21T22:31:51.906Z,100191.19
2022-08-21T22:37:17.199Z,100187.28
2022-08-21T22:40:15.835Z,100202.06
2022-08-21T22:42:46.398Z,100208.09
2022-08-21T22:45:21.518Z,100187.53
2022-08-21T22:52:23.795Z,100178.59
2022-08-21T22:55:28.665Z,100155.22
2022-08-21T22:58:12.073Z,100186.75
2022-08-21T23:00:56.739Z,100186.19
2022-08-21T23:03:46.980Z,100203.66
2022-08-21T23:07:00.806Z,100198.53
2022-08-21T23:09:33.080Z,100199.78
2022-08-21T23:12:31.965Z,100204.41
2022-08-21T23:19:17.513Z,100218.41
2022-08-21T23:22:28.393Z,100097.66
2022-08-21T23:25:40.590Z,100208.19
2022-08-21T23:28:51.378Z,100211.00
2022-08-21T23:31:34.708Z,100205.13
2022-08-21T23:34:20.186Z,100163.63
2022-08-21T23:37:41.214Z,100216.75
2022-08-21T23:40:38.200Z,100217.84
2022-08-21T23:43:35.795Z,100211.72
2022-08-21T23:46:39.585Z,100219.94
2022-08-21T23:49:30.790Z,100220.78
2022-08-21T23:52:23.325Z,100219.19
2022-08-21T23:55:27.646Z,100223.94
2022-08-21T23:58:27.715Z,100220.50
